createdAt,value
2018-07-01T00:02:17.000Z,1010.482
2018-07-01T00:12:17.000Z,1010.511
2018-07-01T00:22:17.000Z,1010.553
2018-07-01T00:32:17.000Z,1010.554
2018-07-01T00:42:17.000Z,1010.485
2018-07-01T00:52:17.000Z,1010.384
2018-07-01T01:02:17.000Z,1010.377
2018-07-01T01:12:17.000Z,1010.442
2018-07-01T01:22:17.000Z,1010.436
2018-07-01T01:32:17.000Z,1010.442
2018-07-01T01:42:17.000Z,1010.461
2018-07-01T01:52:17.000Z,1010.496
2018-07-01T02:02:17.000Z,1010.483
2018-07-01T02:12:17.000Z,1010.507
2018-07-01T02:22:17.000Z,1010.606
2018-07-01T02:32:17.000Z,1010.649
2018-07-01T02:42:17.000Z,1010.7
2018-07-01T02:52:17.000Z,1010.757
2018-07-01T03:02:17.000Z,1010.883
2018-07-01T03:12:17.000Z,1010.886
2018-07-01T03:22:17.000Z,1010.906
2018-07-01T03:32:17.000Z,1010.913
2018-07-01T03:42:17.000Z,1010.961
2018-07-01T03:52:17.000Z,1011.034
2018-07-01T04:02:17.000Z,1011.089
2018-07-01T04:12:17.000Z,1011.128
2018-07-01T04:22:17.000Z,1011.223
2018-07-01T04:32:17.000Z,1011.268
2018-07-01T04:42:18.000Z,1011.251
2018-07-01T04:52:17.000Z,1011.257
2018-07-01T05:02:17.000Z,1011.332
2018-07-01T05:12:17.000Z,1011.406
2018-07-01T05:22:17.000Z,1011.449
2018-07-01T05:32:17.000Z,1011.479
2018-07-01T05:42:17.000Z,1011.575
2018-07-01T05:52:17.000Z,1011.696
2018-07-01T06:02:17.000Z,1011.682
2018-07-01T06:12:17.000Z,1011.74
2018-07-01T06:22:17.000Z,1011.716
2018-07-01T06:32:18.000Z,1011.658
2018-07-01T06:42:18.000Z,1011.717
2018-07-01T06:52:18.000Z,1011.697
2018-07-01T07:02:18.000Z,1011.766
2018-07-01T07:12:18.000Z,1011.746
2018-07-01T07:22:18.000Z,1011.762
2018-07-01T07:32:18.000Z,1011.754
2018-07-01T07:42:18.000Z,1011.808
2018-07-01T07:52:18.000Z,1011.791
2018-07-01T08:02:18.000Z,1011.866
2018-07-01T08:12:18.000Z,1011.761
2018-07-01T08:22:18.000Z,1011.819
2018-07-01T08:32:18.000Z,1011.86
2018-07-01T08:42:18.000Z,1011.802
2018-07-01T08:52:18.000Z,1011.807
2018-07-01T09:02:18.000Z,1011.699
2018-07-01T09:12:18.000Z,1011.717
2018-07-01T09:22:18.000Z,1011.578
2018-07-01T09:42:18.000Z,1011.785
2018-07-01T09:52:18.000Z,1011.722
2018-07-01T10:02:18.000Z,1011.621
2018-07-01T10:12:18.000Z,1011.642
2018-07-01T10:22:18.000Z,1011.506
2018-07-01T10:32:18.000Z,1011.462
2018-07-01T10:42:18.000Z,1011.471
2018-07-01T10:52:18.000Z,1011.391
2018-07-01T11:02:18.000Z,1011.294
2018-07-01T11:12:18.000Z,1011.181
2018-07-01T11:22:18.000Z,1011.136
2018-07-01T11:32:18.000Z,1011.069
2018-07-01T11:42:18.000Z,1011.045
2018-07-01T11:52:18.000Z,1010.846
2018-07-01T12:02:18.000Z,1010.92
2018-07-01T12:12:18.000Z,1010.812
2018-07-01T12:22:18.000Z,1010.871
2018-07-01T12:32:18.000Z,1010.801
2018-07-01T12:42:18.000Z,1010.621
2018-07-01T12:52:18.000Z,1010.627
2018-07-01T13:02:18.000Z,1010.57
2018-07-01T13:12:18.000Z,1010.449
2018-07-01T13:22:18.000Z,1010.397
2018-07-01T13:32:18.000Z,1010.271
2018-07-01T13:42:18.000Z,1010.131
2018-07-01T13:52:18.000Z,1010.05
2018-07-01T14:02:18.000Z,1009.905
2018-07-01T14:12:18.000Z,1009.977
2018-07-01T14:22:18.000Z,1009.777
2018-07-01T14:32:18.000Z,1009.771
2018-07-01T14:42:19.000Z,1009.651
2018-07-01T14:52:19.000Z,1009.593
2018-07-01T15:02:19.000Z,1009.567
2018-07-01T15:12:19.000Z,1009.552
2018-07-01T15:22:20.000Z,1009.495
2018-07-01T15:32:20.000Z,1009.447
2018-07-01T15:42:19.000Z,1009.335
2018-07-01T15:52:20.000Z,1009.307
2018-07-01T16:02:19.000Z,1009.229
2018-07-01T16:12:19.000Z,1009.182
2018-07-01T16:22:19.000Z,1009.07
2018-07-01T16:32:19.000Z,1009.003
2018-07-01T16:42:19.000Z,1009.032
2018-07-01T16:52:19.000Z,1008.983
2018-07-01T17:02:19.000Z,1009.037
2018-07-01T17:12:19.000Z,1009.03
2018-07-01T17:22:19.000Z,1009.114
2018-07-01T17:42:19.000Z,1009.186
2018-07-01T17:52:19.000Z,1009.194
2018-07-01T18:02:19.000Z,1009.23
2018-07-01T18:12:19.000Z,1009.225
2018-07-01T18:22:19.000Z,1009.251
2018-07-01T18:32:19.000Z,1009.276
2018-07-01T18:42:19.000Z,1009.261
2018-07-01T19:02:20.000Z,1009.332
2018-07-01T19:12:19.000Z,1009.406
2018-07-01T19:22:19.000Z,1009.441
2018-07-01T19:32:19.000Z,1009.491
2018-07-01T19:42:19.000Z,1009.559
2018-07-01T19:52:19.000Z,1009.623
2018-07-01T20:02:19.000Z,1009.642
2018-07-01T20:12:19.000Z,1009.818
2018-07-01T20:22:19.000Z,1009.863
2018-07-01T20:42:19.000Z,1009.889
2018-07-01T20:52:23.000Z,1009.917
2018-07-01T21:02:19.000Z,1009.878
2018-07-01T21:12:19.000Z,1009.995
2018-07-01T21:22:19.000Z,1010.037
2018-07-01T21:42:19.000Z,1010.207
2018-07-01T21:52:20.000Z,1010.188
2018-07-01T22:02:19.000Z,1010.154
2018-07-01T22:12:19.000Z,1010.184
2018-07-01T22:22:19.000Z,1010.246
2018-07-01T22:32:19.000Z,1010.306
2018-07-01T22:42:20.000Z,1010.248
2018-07-01T22:52:20.000Z,1010.226
2018-07-01T23:02:20.000Z,1010.18
2018-07-01T23:12:20.000Z,1010.228
2018-07-01T23:22:20.000Z,1010.28
2018-07-01T23:32:20.000Z,1010.215
2018-07-01T23:42:22.000Z,1010.181
2018-07-01T23:52:22.000Z,1010.05
